Terminal Aerodrome Forecast
Issued by NWS Goodland, KS

Home | Current Version | Previous Version | Text Only | Print | Product List | Glossary On
Versions: 1 2 3 4 5 6 7 8 9 10 11 12 13 14 15 16 17 18 19 20 21 22 23
000
FTUS43 KGLD 262324 AAC
TAFGLD
TAF AMD
KGLD 262324Z 2623/2724 11006KT P6SM SCT060 SCT110 BKN200
     FM270400 14008KT P6SM FEW060 SCT120
     FM271000 16009KT P6SM FEW025
     FM271400 17014KT P6SM SCT070
     FM271700 18021G31KT P6SM FEW200=

USA.gov is the U.S. government's official web portal to all federal, state and local government web resources and services.